Star Care — 9V9352 — position and weather

sailwx.info

Track history (hours):
 
Tides and Currents Weather Stations Pressure Air Temp Water Temp Dewpoint Dewpoint Depression Visibility Wind Speed Wind Dir Waves Ship Positions

Star Care

Last reported at 2018-Feb-15 04:48 UTC. Time now 2018-Feb-21 22:59 UTC.
Position N 32°18' W 117°47'.

Length 163 m; draft 7.4 m.

Type: Ship. MMSI: 566341000.

Date/timePositionNaut miles runAvg speedWind from/ knotsBaromVisibWave heightAir tempDewpointWater temp
2018-Feb-15 04:48N 32°18' W 117°47'620.5
2018-Feb-15 04:30N 32°24' W 117°47'1020.4
2018-Feb-15 04:00N 32°35' W 117°48'1019.4
2018-Feb-15 03:31N 32°44' W 117°51'1020.2
2018-Feb-15 03:01N 32°53' W 117°55'1020.7
2018-Feb-15 02:31N 33°03' W 117°59'1020.7
2018-Feb-15 02:01N 33°13' W 118°04'1019.1
2018-Feb-15 01:30N 33°22' W 118°08'918.0
2018-Feb-15 01:01N 33°30' W 118°11'714.3
2018-Feb-15 00:30N 33°37' W 118°13'611.3
2018-Feb-15 00:00N 33°43' W 118°11'1 2.5
2018-Feb-14 23:30N 33°44' W 118°12'0 0.0
2018-Feb-14 22:59N 33°44' W 118°12'0 0.1
2018-Feb-14 22:29N 33°44' W 118°12'0 0.0
2018-Feb-14 21:59N 33°44' W 118°12'0 0.1
2018-Feb-14 21:23N 33°44' W 118°12'0 0.1
2018-Feb-14 20:59N 33°44' W 118°12'0 0.2
2018-Feb-14 20:26N 33°44' W 118°12'2 4.2
2018-Feb-14 20:00N 33°42' W 118°11'4 8.1
2018-Feb-14 19:30N 33°38' W 118°11'4 7.8
2018-Feb-14 19:00N 33°36' W 118°16'510.2
2018-Feb-14 18:30N 33°37' W 118°22'612.1
2018-Feb-14 18:00N 33°40' W 118°28'612.1
2018-Feb-14 17:30N 33°43' W 118°34'612.0
2018-Feb-14 17:00N 33°46' W 118°41'611.8
2018-Feb-14 16:29N 33°49' W 118°47'611.7
2018-Feb-14 15:57N 33°52' W 118°53'511.8
2018-Feb-14 15:30N 33°55' W 118°59'711.9
2018-Feb-14 14:55N 33°58' W 119°06'511.9
2018-Feb-14 14:30N 34°01' W 119°12'5 9.1
2018-Feb-14 14:00N 34°04' W 119°15'5 9.7
2018-Feb-14 13:29N 34°09' W 119°13'1 0.2
2018-Feb-14 10:08N 34°09' W 119°12'0 0.0
2018-Feb-14 09:59N 34°09' W 119°12'0 0.0
2018-Feb-14 07:32N 34°09' W 119°12'0 0.0
2018-Feb-14 07:17N 34°09' W 119°12'0 0.0
2018-Feb-14 03:56N 34°09' W 119°12'0 0.0
2018-Feb-14 03:26N 34°09' W 119°12'0 0.0
2018-Feb-14 02:53N 34°09' W 119°12'0 0.0
2018-Feb-13 13:14N 34°09' W 119°12'0 0.0
2018-Feb-13 09:26N 34°09' W 119°12'0 0.0
2018-Feb-13 08:56N 34°09' W 119°12'0 0.0
2018-Feb-13 08:23N 34°09' W 119°12'0 0.0
2018-Feb-13 07:50N 34°09' W 119°12'0 0.0
2018-Feb-13 07:23N 34°09' W 119°12'0 0.0
2018-Feb-13 05:35N 34°09' W 119°12'0 0.0
2018-Feb-13 05:11N 34°09' W 119°12'0 0.0
2018-Feb-12 21:11N 34°09' W 119°12'0 0.0
2018-Feb-12 18:08N 34°09' W 119°12'0 0.0
2018-Feb-12 10:53N 34°09' W 119°12'0 0.0
2018-Feb-12 09:20N 34°09' W 119°12'0 0.0
2018-Feb-12 08:44N 34°09' W 119°12'0 0.0
2018-Feb-12 07:56N 34°09' W 119°12'0 0.0
2018-Feb-12 05:08N 34°09' W 119°12'0 0.0
2018-Feb-12 04:50N 34°09' W 119°12'0 0.0
2018-Feb-12 00:23N 34°09' W 119°12'0 0.0
2018-Feb-11 23:41N 34°09' W 119°12'0 0.0
2018-Feb-11 23:11N 34°09' W 119°12'0 0.0
2018-Feb-11 22:59N 34°09' W 119°12'0 0.0
2018-Feb-11 22:20N 34°09' W 119°12'0 0.0
2018-Feb-11 20:29N 34°09' W 119°12'0 0.0
2018-Feb-11 19:41N 34°09' W 119°12'0 0.0
2018-Feb-11 16:38N 34°09' W 119°12'0 0.0
2018-Feb-11 14:42N 34°09' W 119°12'0 0.7
2018-Feb-11 14:29N 34°09' W 119°12'3 6.1
2018-Feb-11 14:00N 34°06' W 119°15'2 4.6
2018-Feb-11 13:30N 34°04' W 119°14'3 6.1
2018-Feb-11 13:00N 34°02' W 119°11'5 8.4
2018-Feb-11 12:22N 33°57' W 119°11'412.0
2018-Feb-11 11:59N 33°54' W 119°07'4 9.1
2018-Feb-11 11:30N 33°50' W 119°04'5 9.7
2018-Feb-11 11:00N 33°46' W 119°01'713.0
2018-Feb-11 10:30N 33°41' W 118°56'714.7
2018-Feb-11 10:00N 33°35' W 118°51'817.1
2018-Feb-11 09:30N 33°28' W 118°45'917.0
2018-Feb-11 09:00N 33°21' W 118°39'5616.9
2018-Feb-11 05:43N 32°36' W 117°59'416.9
2018-Feb-11 05:30N 32°33' W 117°57'8316.0
2018-Feb-11 00:19N 31°17' W 117°18'4817.5
2018-Feb-10 21:33N 30°33' W 116°56'117.5
2018-Feb-10 21:29N 30°32' W 116°56'21717.8
2018-Feb-10 09:18N 27°17' W 115°04'  
Track history (hours):
 
Tides and Currents Weather Stations Pressure Air Temp Water Temp Dewpoint Dewpoint Depression Visibility Wind Speed Wind Dir Waves Ship Positions

Star Care

Last reported at 2018-Feb-15 04:48 UTC. Time now 2018-Feb-21 22:59 UTC.
Position N 32°18' W 117°47'.

Length 163 m; draft 7.4 m.

Type: Ship. MMSI: 566341000.

Date/timePositionNaut miles runAvg speedWind from/ knotsBaromVisibWave heightAir tempDewpointWater temp
2018-Feb-15 04:48N 32°18' W 117°47'620.5
2018-Feb-15 04:30N 32°24' W 117°47'1020.4
2018-Feb-15 04:00N 32°35' W 117°48'1019.4
2018-Feb-15 03:31N 32°44' W 117°51'1020.2
2018-Feb-15 03:01N 32°53' W 117°55'1020.7
2018-Feb-15 02:31N 33°03' W 117°59'1020.7
2018-Feb-15 02:01N 33°13' W 118°04'1019.1
2018-Feb-15 01:30N 33°22' W 118°08'918.0
2018-Feb-15 01:01N 33°30' W 118°11'714.3
2018-Feb-15 00:30N 33°37' W 118°13'611.3
2018-Feb-15 00:00N 33°43' W 118°11'1 2.5
2018-Feb-14 23:30N 33°44' W 118°12'0 0.0
2018-Feb-14 22:59N 33°44' W 118°12'0 0.1
2018-Feb-14 22:29N 33°44' W 118°12'0 0.0
2018-Feb-14 21:59N 33°44' W 118°12'0 0.1
2018-Feb-14 21:23N 33°44' W 118°12'0 0.1
2018-Feb-14 20:59N 33°44' W 118°12'0 0.2
2018-Feb-14 20:26N 33°44' W 118°12'2 4.2
2018-Feb-14 20:00N 33°42' W 118°11'4 8.1
2018-Feb-14 19:30N 33°38' W 118°11'4 7.8
2018-Feb-14 19:00N 33°36' W 118°16'510.2
2018-Feb-14 18:30N 33°37' W 118°22'612.1
2018-Feb-14 18:00N 33°40' W 118°28'612.1
2018-Feb-14 17:30N 33°43' W 118°34'612.0
2018-Feb-14 17:00N 33°46' W 118°41'611.8
2018-Feb-14 16:29N 33°49' W 118°47'611.7
2018-Feb-14 15:57N 33°52' W 118°53'511.8
2018-Feb-14 15:30N 33°55' W 118°59'711.9
2018-Feb-14 14:55N 33°58' W 119°06'511.9
2018-Feb-14 14:30N 34°01' W 119°12'5 9.1
2018-Feb-14 14:00N 34°04' W 119°15'5 9.7
2018-Feb-14 13:29N 34°09' W 119°13'1 0.2
2018-Feb-14 10:08N 34°09' W 119°12'0 0.0
2018-Feb-14 09:59N 34°09' W 119°12'0 0.0
2018-Feb-14 07:32N 34°09' W 119°12'0 0.0
2018-Feb-14 07:17N 34°09' W 119°12'0 0.0
2018-Feb-14 03:56N 34°09' W 119°12'0 0.0
2018-Feb-14 03:26N 34°09' W 119°12'0 0.0
2018-Feb-14 02:53N 34°09' W 119°12'0 0.0
2018-Feb-13 13:14N 34°09' W 119°12'0 0.0
2018-Feb-13 09:26N 34°09' W 119°12'0 0.0
2018-Feb-13 08:56N 34°09' W 119°12'0 0.0
2018-Feb-13 08:23N 34°09' W 119°12'0 0.0
2018-Feb-13 07:50N 34°09' W 119°12'0 0.0
2018-Feb-13 07:23N 34°09' W 119°12'0 0.0
2018-Feb-13 05:35N 34°09' W 119°12'0 0.0
2018-Feb-13 05:11N 34°09' W 119°12'0 0.0
2018-Feb-12 21:11N 34°09' W 119°12'0 0.0
2018-Feb-12 18:08N 34°09' W 119°12'0 0.0
2018-Feb-12 10:53N 34°09' W 119°12'0 0.0
2018-Feb-12 09:20N 34°09' W 119°12'0 0.0
2018-Feb-12 08:44N 34°09' W 119°12'0 0.0
2018-Feb-12 07:56N 34°09' W 119°12'0 0.0
2018-Feb-12 05:08N 34°09' W 119°12'0 0.0
2018-Feb-12 04:50N 34°09' W 119°12'0 0.0
2018-Feb-12 00:23N 34°09' W 119°12'0 0.0
2018-Feb-11 23:41N 34°09' W 119°12'0 0.0
2018-Feb-11 23:11N 34°09' W 119°12'0 0.0
2018-Feb-11 22:59N 34°09' W 119°12'0 0.0
2018-Feb-11 22:20N 34°09' W 119°12'0 0.0
2018-Feb-11 20:29N 34°09' W 119°12'0 0.0
2018-Feb-11 19:41N 34°09' W 119°12'0 0.0
2018-Feb-11 16:38N 34°09' W 119°12'0 0.0
2018-Feb-11 14:42N 34°09' W 119°12'0 0.7
2018-Feb-11 14:29N 34°09' W 119°12'3 6.1
2018-Feb-11 14:00N 34°06' W 119°15'2 4.6
2018-Feb-11 13:30N 34°04' W 119°14'3 6.1
2018-Feb-11 13:00N 34°02' W 119°11'5 8.4
2018-Feb-11 12:22N 33°57' W 119°11'412.0
2018-Feb-11 11:59N 33°54' W 119°07'4 9.1
2018-Feb-11 11:30N 33°50' W 119°04'5 9.7
2018-Feb-11 11:00N 33°46' W 119°01'713.0
2018-Feb-11 10:30N 33°41' W 118°56'714.7
2018-Feb-11 10:00N 33°35' W 118°51'817.1
2018-Feb-11 09:30N 33°28' W 118°45'917.0
2018-Feb-11 09:00N 33°21' W 118°39'5616.9
2018-Feb-11 05:43N 32°36' W 117°59'416.9
2018-Feb-11 05:30N 32°33' W 117°57'8316.0
2018-Feb-11 00:19N 31°17' W 117°18'4817.5
2018-Feb-10 21:33N 30°33' W 116°56'117.5
2018-Feb-10 21:29N 30°32' W 116°56'21717.8
2018-Feb-10 09:18N 27°17' W 115°04'  

Dump ship's entire track history